sensor_id;sensor_type;location;lat;lon;timestamp;P1;durP1;ratioP1;P2;durP2;ratioP2
16979;SDS011;42288;52.182;21.156;2023-07-31T00:00:24;5.00;;;2.50;;
16979;SDS011;42288;52.182;21.156;2023-07-31T00:02:49;3.03;;;2.67;;
16979;SDS011;42288;52.182;21.156;2023-07-31T00:05:17;4.23;;;3.10;;
16979;SDS011;42288;52.182;21.156;2023-07-31T00:07:42;3.03;;;2.37;;
16979;SDS011;42288;52.182;21.156;2023-07-31T00:10:08;3.27;;;2.97;;
16979;SDS011;42288;52.182;21.156;2023-07-31T00:12:34;2.90;;;2.60;;
16979;SDS011;42288;52.182;21.156;2023-07-31T00:14:59;3.40;;;2.60;;
16979;SDS011;42288;52.182;21.156;2023-07-31T00:17:25;2.93;;;2.60;;
16979;SDS011;42288;52.182;21.156;2023-07-31T00:19:51;3.00;;;2.27;;
16979;SDS011;42288;52.182;21.156;2023-07-31T00:22:16;3.67;;;2.33;;
16979;SDS011;42288;52.182;21.156;2023-07-31T00:24:42;3.53;;;2.23;;
16979;SDS011;42288;52.182;21.156;2023-07-31T00:27:08;2.57;;;2.30;;
16979;SDS011;42288;52.182;21.156;2023-07-31T00:29:33;6.27;;;2.23;;
16979;SDS011;42288;52.182;21.156;2023-07-31T00:31:59;2.83;;;2.30;;
16979;SDS011;42288;52.182;21.156;2023-07-31T00:34:24;2.40;;;1.87;;
16979;SDS011;42288;52.182;21.156;2023-07-31T00:36:50;2.33;;;2.10;;
16979;SDS011;42288;52.182;21.156;2023-07-31T00:39:16;3.17;;;2.30;;
16979;SDS011;42288;52.182;21.156;2023-07-31T00:41:41;3.47;;;1.90;;
16979;SDS011;42288;52.182;21.156;2023-07-31T00:44:07;3.03;;;2.00;;
16979;SDS011;42288;52.182;21.156;2023-07-31T00:46:32;2.60;;;2.10;;
16979;SDS011;42288;52.182;21.156;2023-07-31T00:48:58;2.47;;;1.93;;
16979;SDS011;42288;52.182;21.156;2023-07-31T00:51:24;2.67;;;2.10;;
16979;SDS011;42288;52.182;21.156;2023-07-31T00:53:50;3.23;;;1.80;;
16979;SDS011;42288;52.182;21.156;2023-07-31T00:56:19;2.30;;;1.90;;
16979;SDS011;42288;52.182;21.156;2023-07-31T00:58:44;2.17;;;1.83;;
16979;SDS011;42288;52.182;21.156;2023-07-31T01:01:10;2.03;;;1.70;;
16979;SDS011;42288;52.182;21.156;2023-07-31T01:03:35;2.17;;;1.80;;
16979;SDS011;42288;52.182;21.156;2023-07-31T01:06:05;2.43;;;1.90;;
16979;SDS011;42288;52.182;21.156;2023-07-31T01:08:40;2.37;;;1.80;;
16979;SDS011;42288;52.182;21.156;2023-07-31T01:11:19;3.47;;;1.80;;
16979;SDS011;42288;52.182;21.156;2023-07-31T01:13:51;2.73;;;1.90;;
16979;SDS011;42288;52.182;21.156;2023-07-31T01:16:17;3.90;;;2.07;;
16979;SDS011;42288;52.182;21.156;2023-07-31T01:18:43;5.73;;;1.90;;
16979;SDS011;42288;52.182;21.156;2023-07-31T01:32:08;2.40;;;1.90;;
16979;SDS011;42288;52.182;21.156;2023-07-31T01:34:35;2.67;;;2.20;;
16979;SDS011;42288;52.182;21.156;2023-07-31T01:37:02;7.40;;;2.50;;
16979;SDS011;42288;52.182;21.156;2023-07-31T01:39:28;2.47;;;1.80;;
16979;SDS011;42288;52.182;21.156;2023-07-31T01:41:53;3.27;;;1.90;;
16979;SDS011;42288;52.182;21.156;2023-07-31T01:44:19;2.63;;;2.10;;
16979;SDS011;42288;52.182;21.156;2023-07-31T01:46:45;2.57;;;2.30;;
16979;SDS011;42288;52.182;21.156;2023-07-31T01:49:10;3.10;;;2.03;;
16979;SDS011;42288;52.182;21.156;2023-07-31T01:51:36;3.87;;;1.93;;
16979;SDS011;42288;52.182;21.156;2023-07-31T01:54:02;3.77;;;1.93;;
16979;SDS011;42288;52.182;21.156;2023-07-31T01:56:28;2.23;;;1.60;;
16979;SDS011;42288;52.182;21.156;2023-07-31T01:58:53;2.73;;;1.90;;
16979;SDS011;42288;52.182;21.156;2023-07-31T02:01:19;3.87;;;2.10;;
16979;SDS011;42288;52.182;21.156;2023-07-31T02:03:44;2.57;;;2.00;;
16979;SDS011;42288;52.182;21.156;2023-07-31T02:06:10;2.63;;;1.93;;
16979;SDS011;42288;52.182;21.156;2023-07-31T02:08:36;2.67;;;2.20;;
16979;SDS011;42288;52.182;21.156;2023-07-31T02:11:01;4.10;;;1.97;;
16979;SDS011;42288;52.182;21.156;2023-07-31T02:13:27;3.03;;;2.10;;
16979;SDS011;42288;52.182;21.156;2023-07-31T02:15:52;2.80;;;2.20;;
16979;SDS011;42288;52.182;21.156;2023-07-31T02:18:18;2.77;;;2.07;;
16979;SDS011;42288;52.182;21.156;2023-07-31T02:20:48;3.47;;;2.20;;
16979;SDS011;42288;52.182;21.156;2023-07-31T02:23:20;3.03;;;2.10;;
16979;SDS011;42288;52.182;21.156;2023-07-31T02:25:45;3.47;;;2.37;;
16979;SDS011;42288;52.182;21.156;2023-07-31T02:28:11;3.93;;;2.10;;
16979;SDS011;42288;52.182;21.156;2023-07-31T02:30:37;2.60;;;2.30;;
16979;SDS011;42288;52.182;21.156;2023-07-31T02:33:03;4.23;;;2.43;;
16979;SDS011;42288;52.182;21.156;2023-07-31T02:35:29;3.57;;;2.47;;
16979;SDS011;42288;52.182;21.156;2023-07-31T02:37:55;3.13;;;1.83;;
16979;SDS011;42288;52.182;21.156;2023-07-31T02:40:20;2.40;;;2.10;;
16979;SDS011;42288;52.182;21.156;2023-07-31T02:42:46;5.63;;;2.30;;
16979;SDS011;42288;52.182;21.156;2023-07-31T02:45:12;4.00;;;2.33;;
16979;SDS011;42288;52.182;21.156;2023-07-31T02:47:38;3.40;;;2.30;;
16979;SDS011;42288;52.182;21.156;2023-07-31T02:50:03;3.47;;;2.17;;
16979;SDS011;42288;52.182;21.156;2023-07-31T02:52:29;3.43;;;2.33;;
16979;SDS011;42288;52.182;21.156;2023-07-31T02:54:55;3.73;;;2.10;;
16979;SDS011;42288;52.182;21.156;2023-07-31T02:57:20;2.37;;;2.07;;
16979;SDS011;42288;52.182;21.156;2023-07-31T02:59:46;3.50;;;2.50;;
16979;SDS011;42288;52.182;21.156;2023-07-31T03:02:12;2.10;;;1.90;;
16979;SDS011;42288;52.182;21.156;2023-07-31T03:04:38;3.20;;;2.50;;
16979;SDS011;42288;52.182;21.156;2023-07-31T03:07:03;3.40;;;2.37;;
16979;SDS011;42288;52.182;21.156;2023-07-31T03:09:29;3.23;;;2.40;;
16979;SDS011;42288;52.182;21.156;2023-07-31T03:11:55;4.50;;;2.20;;
16979;SDS011;42288;52.182;21.156;2023-07-31T03:14:21;3.10;;;2.30;;
16979;SDS011;42288;52.182;21.156;2023-07-31T03:16:46;4.43;;;2.40;;
16979;SDS011;42288;52.182;21.156;2023-07-31T03:19:12;6.43;;;2.73;;
16979;SDS011;42288;52.182;21.156;2023-07-31T03:21:38;4.87;;;2.23;;
16979;SDS011;42288;52.182;21.156;2023-07-31T03:35:14;3.93;;;2.67;;
16979;SDS011;42288;52.182;21.156;2023-07-31T03:37:40;7.20;;;2.87;;
16979;SDS011;42288;52.182;21.156;2023-07-31T03:40:06;4.80;;;2.37;;
16979;SDS011;42288;52.182;21.156;2023-07-31T03:42:32;4.77;;;2.80;;
16979;SDS011;42288;52.182;21.156;2023-07-31T03:44:57;2.73;;;2.37;;
16979;SDS011;42288;52.182;21.156;2023-07-31T03:47:23;4.17;;;2.50;;
16979;SDS011;42288;52.182;21.156;2023-07-31T03:49:48;3.80;;;2.70;;
16979;SDS011;42288;52.182;21.156;2023-07-31T03:52:14;4.10;;;2.83;;
16979;SDS011;42288;52.182;21.156;2023-07-31T03:54:39;4.90;;;2.90;;
16979;SDS011;42288;52.182;21.156;2023-07-31T03:57:05;5.40;;;2.90;;
16979;SDS011;42288;52.182;21.156;2023-07-31T03:59:31;4.33;;;2.87;;
16979;SDS011;42288;52.182;21.156;2023-07-31T04:01:56;5.90;;;2.87;;
16979;SDS011;42288;52.182;21.156;2023-07-31T04:04:22;4.70;;;2.67;;
16979;SDS011;42288;52.182;21.156;2023-07-31T04:06:47;4.87;;;2.53;;
16979;SDS011;42288;52.182;21.156;2023-07-31T04:09:13;5.20;;;2.80;;
16979;SDS011;42288;52.182;21.156;2023-07-31T04:11:38;5.63;;;2.80;;
16979;SDS011;42288;52.182;21.156;2023-07-31T04:14:04;5.00;;;2.50;;
16979;SDS011;42288;52.182;21.156;2023-07-31T04:16:30;6.90;;;3.00;;
16979;SDS011;42288;52.182;21.156;2023-07-31T04:18:55;4.70;;;2.80;;
16979;SDS011;42288;52.182;21.156;2023-07-31T04:21:21;6.07;;;2.73;;
16979;SDS011;42288;52.182;21.156;2023-07-31T04:23:46;6.77;;;2.90;;
16979;SDS011;42288;52.182;21.156;2023-07-31T04:26:12;4.73;;;2.60;;
16979;SDS011;42288;52.182;21.156;2023-07-31T04:28:37;9.13;;;2.70;;
16979;SDS011;42288;52.182;21.156;2023-07-31T04:31:03;3.60;;;2.70;;
16979;SDS011;42288;52.182;21.156;2023-07-31T04:33:29;6.20;;;2.67;;
16979;SDS011;42288;52.182;21.156;2023-07-31T04:35:54;5.33;;;2.80;;
16979;SDS011;42288;52.182;21.156;2023-07-31T04:38:20;6.60;;;2.80;;
16979;SDS011;42288;52.182;21.156;2023-07-31T04:40:46;5.43;;;2.73;;
16979;SDS011;42288;52.182;21.156;2023-07-31T04:43:12;6.87;;;2.63;;
16979;SDS011;42288;52.182;21.156;2023-07-31T04:45:38;4.83;;;3.03;;
16979;SDS011;42288;52.182;21.156;2023-07-31T04:48:03;5.37;;;2.60;;
16979;SDS011;42288;52.182;21.156;2023-07-31T04:50:29;4.97;;;2.77;;
16979;SDS011;42288;52.182;21.156;2023-07-31T04:52:55;5.43;;;2.80;;
16979;SDS011;42288;52.182;21.156;2023-07-31T04:55:21;5.00;;;2.33;;
16979;SDS011;42288;52.182;21.156;2023-07-31T04:57:47;8.20;;;2.83;;
16979;SDS011;42288;52.182;21.156;2023-07-31T05:00:12;4.73;;;2.93;;
16979;SDS011;42288;52.182;21.156;2023-07-31T05:02:38;8.13;;;2.70;;
16979;SDS011;42288;52.182;21.156;2023-07-31T05:05:04;3.63;;;2.70;;
16979;SDS011;42288;52.182;21.156;2023-07-31T05:07:29;5.47;;;2.80;;
16979;SDS011;42288;52.182;21.156;2023-07-31T05:09:55;5.50;;;2.97;;
16979;SDS011;42288;52.182;21.156;2023-07-31T05:12:21;6.40;;;3.00;;
16979;SDS011;42288;52.182;21.156;2023-07-31T05:14:46;5.73;;;2.40;;
16979;SDS011;42288;52.182;21.156;2023-07-31T05:17:12;5.50;;;2.70;;
16979;SDS011;42288;52.182;21.156;2023-07-31T05:19:37;6.47;;;2.67;;
16979;SDS011;42288;52.182;21.156;2023-07-31T05:22:03;7.00;;;2.60;;
16979;SDS011;42288;52.182;21.156;2023-07-31T05:24:29;4.50;;;2.77;;
16979;SDS011;42288;52.182;21.156;2023-07-31T05:26:54;5.80;;;3.20;;
16979;SDS011;42288;52.182;21.156;2023-07-31T05:29:20;5.50;;;2.70;;
16979;SDS011;42288;52.182;21.156;2023-07-31T05:31:46;6.73;;;3.00;;
16979;SDS011;42288;52.182;21.156;2023-07-31T05:34:12;5.73;;;2.50;;
16979;SDS011;42288;52.182;21.156;2023-07-31T05:36:37;4.33;;;2.80;;
16979;SDS011;42288;52.182;21.156;2023-07-31T05:39:03;4.93;;;2.60;;
16979;SDS011;42288;52.182;21.156;2023-07-31T05:41:32;5.20;;;2.67;;
16979;SDS011;42288;52.182;21.156;2023-07-31T05:43:57;6.87;;;3.03;;
16979;SDS011;42288;52.182;21.156;2023-07-31T05:46:23;5.33;;;2.80;;
16979;SDS011;42288;52.182;21.156;2023-07-31T05:48:48;6.60;;;3.07;;
16979;SDS011;42288;52.182;21.156;2023-07-31T05:51:14;5.83;;;2.90;;
16979;SDS011;42288;52.182;21.156;2023-07-31T05:53:40;7.77;;;2.97;;
16979;SDS011;42288;52.182;21.156;2023-07-31T05:56:05;8.67;;;2.83;;
16979;SDS011;42288;52.182;21.156;2023-07-31T05:58:31;4.30;;;3.00;;
16979;SDS011;42288;52.182;21.156;2023-07-31T06:00:57;7.17;;;3.40;;
16979;SDS011;42288;52.182;21.156;2023-07-31T06:03:22;6.57;;;2.70;;
16979;SDS011;42288;52.182;21.156;2023-07-31T06:05:48;4.57;;;2.70;;
16979;SDS011;42288;52.182;21.156;2023-07-31T06:08:13;11.47;;;2.70;;
16979;SDS011;42288;52.182;21.156;2023-07-31T06:10:39;13.20;;;3.67;;
16979;SDS011;42288;52.182;21.156;2023-07-31T06:13:05;4.03;;;2.40;;
16979;SDS011;42288;52.182;21.156;2023-07-31T06:15:30;8.70;;;2.90;;
16979;SDS011;42288;52.182;21.156;2023-07-31T06:17:56;6.37;;;2.63;;
16979;SDS011;42288;52.182;21.156;2023-07-31T06:20:22;4.67;;;2.60;;
16979;SDS011;42288;52.182;21.156;2023-07-31T06:22:48;4.63;;;2.57;;
16979;SDS011;42288;52.182;21.156;2023-07-31T06:25:13;5.33;;;2.80;;
16979;SDS011;42288;52.182;21.156;2023-07-31T06:27:39;3.80;;;2.40;;
16979;SDS011;42288;52.182;21.156;2023-07-31T06:30:05;4.97;;;2.70;;
16979;SDS011;42288;52.182;21.156;2023-07-31T06:32:31;6.43;;;2.80;;
16979;SDS011;42288;52.182;21.156;2023-07-31T06:34:57;6.27;;;3.20;;
16979;SDS011;42288;52.182;21.156;2023-07-31T06:37:22;8.23;;;2.70;;
16979;SDS011;42288;52.182;21.156;2023-07-31T06:39:48;5.37;;;2.83;;
16979;SDS011;42288;52.182;21.156;2023-07-31T06:42:14;5.67;;;2.73;;
16979;SDS011;42288;52.182;21.156;2023-07-31T06:44:39;6.20;;;2.87;;
16979;SDS011;42288;52.182;21.156;2023-07-31T06:47:05;8.80;;;3.07;;
16979;SDS011;42288;52.182;21.156;2023-07-31T06:49:30;4.57;;;2.80;;
16979;SDS011;42288;52.182;21.156;2023-07-31T06:51:56;7.23;;;3.07;;
16979;SDS011;42288;52.182;21.156;2023-07-31T06:54:22;6.27;;;3.30;;
16979;SDS011;42288;52.182;21.156;2023-07-31T06:56:47;6.93;;;2.70;;
16979;SDS011;42288;52.182;21.156;2023-07-31T06:59:13;7.20;;;2.73;;
16979;SDS011;42288;52.182;21.156;2023-07-31T07:01:38;7.10;;;3.00;;
16979;SDS011;42288;52.182;21.156;2023-07-31T07:04:04;6.50;;;3.00;;
16979;SDS011;42288;52.182;21.156;2023-07-31T07:06:29;11.13;;;3.30;;
16979;SDS011;42288;52.182;21.156;2023-07-31T07:08:55;4.83;;;2.60;;
16979;SDS011;42288;52.182;21.156;2023-07-31T07:11:20;3.73;;;2.50;;
16979;SDS011;42288;52.182;21.156;2023-07-31T07:13:46;6.60;;;2.90;;
16979;SDS011;42288;52.182;21.156;2023-07-31T07:16:12;5.17;;;2.63;;
16979;SDS011;42288;52.182;21.156;2023-07-31T07:18:37;4.23;;;3.00;;
16979;SDS011;42288;52.182;21.156;2023-07-31T07:21:03;5.03;;;3.30;;
16979;SDS011;42288;52.182;21.156;2023-07-31T07:23:28;8.43;;;3.00;;
16979;SDS011;42288;52.182;21.156;2023-07-31T07:25:54;8.67;;;3.17;;
16979;SDS011;42288;52.182;21.156;2023-07-31T07:28:20;7.73;;;2.97;;
16979;SDS011;42288;52.182;21.156;2023-07-31T07:30:50;5.53;;;3.40;;
16979;SDS011;42288;52.182;21.156;2023-07-31T07:33:17;7.33;;;3.13;;
16979;SDS011;42288;52.182;21.156;2023-07-31T07:35:43;7.07;;;3.00;;
16979;SDS011;42288;52.182;21.156;2023-07-31T07:38:08;6.47;;;3.10;;
16979;SDS011;42288;52.182;21.156;2023-07-31T07:40:38;6.63;;;3.50;;
16979;SDS011;42288;52.182;21.156;2023-07-31T07:43:04;6.70;;;3.70;;
16979;SDS011;42288;52.182;21.156;2023-07-31T07:45:29;6.87;;;3.60;;
16979;SDS011;42288;52.182;21.156;2023-07-31T07:47:55;6.37;;;2.80;;
16979;SDS011;42288;52.182;21.156;2023-07-31T07:50:21;7.03;;;2.70;;
16979;SDS011;42288;52.182;21.156;2023-07-31T07:52:46;6.33;;;2.77;;
16979;SDS011;42288;52.182;21.156;2023-07-31T07:55:12;6.10;;;2.90;;
16979;SDS011;42288;52.182;21.156;2023-07-31T07:57:37;4.57;;;2.30;;
16979;SDS011;42288;52.182;21.156;2023-07-31T08:00:04;5.27;;;2.70;;
16979;SDS011;42288;52.182;21.156;2023-07-31T08:02:30;4.83;;;3.00;;
16979;SDS011;42288;52.182;21.156;2023-07-31T08:04:56;4.07;;;2.20;;
16979;SDS011;42288;52.182;21.156;2023-07-31T08:07:21;5.73;;;2.80;;
16979;SDS011;42288;52.182;21.156;2023-07-31T08:09:47;4.50;;;2.47;;
16979;SDS011;42288;52.182;21.156;2023-07-31T08:12:13;4.57;;;2.90;;
16979;SDS011;42288;52.182;21.156;2023-07-31T08:14:38;5.97;;;2.60;;
16979;SDS011;42288;52.182;21.156;2023-07-31T08:17:04;7.07;;;2.90;;
16979;SDS011;42288;52.182;21.156;2023-07-31T08:19:30;6.00;;;3.00;;
16979;SDS011;42288;52.182;21.156;2023-07-31T08:21:55;4.77;;;2.40;;
16979;SDS011;42288;52.182;21.156;2023-07-31T08:24:21;7.17;;;2.40;;
16979;SDS011;42288;52.182;21.156;2023-07-31T08:26:46;3.87;;;2.70;;
16979;SDS011;42288;52.182;21.156;2023-07-31T08:29:13;6.20;;;2.70;;
16979;SDS011;42288;52.182;21.156;2023-07-31T08:31:38;3.83;;;2.43;;
16979;SDS011;42288;52.182;21.156;2023-07-31T08:34:04;4.27;;;2.33;;
16979;SDS011;42288;52.182;21.156;2023-07-31T08:36:30;4.70;;;2.37;;
16979;SDS011;42288;52.182;21.156;2023-07-31T08:38:55;4.87;;;2.50;;
16979;SDS011;42288;52.182;21.156;2023-07-31T08:41:21;7.23;;;2.60;;
16979;SDS011;42288;52.182;21.156;2023-07-31T08:43:46;8.07;;;2.30;;
16979;SDS011;42288;52.182;21.156;2023-07-31T08:46:12;7.00;;;2.10;;
16979;SDS011;42288;52.182;21.156;2023-07-31T08:48:39;4.20;;;2.40;;
16979;SDS011;42288;52.182;21.156;2023-07-31T08:51:07;3.47;;;1.90;;
16979;SDS011;42288;52.182;21.156;2023-07-31T08:53:32;3.87;;;1.90;;
16979;SDS011;42288;52.182;21.156;2023-07-31T08:55:58;7.20;;;2.37;;
16979;SDS011;42288;52.182;21.156;2023-07-31T08:58:24;6.73;;;2.40;;
16979;SDS011;42288;52.182;21.156;2023-07-31T09:00:52;3.63;;;2.10;;
16979;SDS011;42288;52.182;21.156;2023-07-31T09:03:20;6.93;;;2.20;;
16979;SDS011;42288;52.182;21.156;2023-07-31T09:05:48;8.87;;;2.20;;
16979;SDS011;42288;52.182;21.156;2023-07-31T09:08:17;5.17;;;2.40;;
16979;SDS011;42288;52.182;21.156;2023-07-31T09:10:45;9.00;;;2.57;;
16979;SDS011;42288;52.182;21.156;2023-07-31T09:13:12;6.93;;;2.23;;
16979;SDS011;42288;52.182;21.156;2023-07-31T09:15:39;4.30;;;2.43;;
16979;SDS011;42288;52.182;21.156;2023-07-31T09:18:06;4.30;;;1.90;;
16979;SDS011;42288;52.182;21.156;2023-07-31T09:20:32;3.43;;;1.90;;
16979;SDS011;42288;52.182;21.156;2023-07-31T09:23:11;5.33;;;2.50;;
16979;SDS011;42288;52.182;21.156;2023-07-31T09:25:38;7.73;;;2.60;;
16979;SDS011;42288;52.182;21.156;2023-07-31T09:28:08;4.10;;;2.20;;
16979;SDS011;42288;52.182;21.156;2023-07-31T09:30:49;3.47;;;2.13;;
16979;SDS011;42288;52.182;21.156;2023-07-31T09:33:17;6.47;;;2.40;;
16979;SDS011;42288;52.182;21.156;2023-07-31T09:35:43;4.83;;;2.27;;
16979;SDS011;42288;52.182;21.156;2023-07-31T09:38:13;3.92;;;2.17;;
16979;SDS011;42288;52.182;21.156;2023-07-31T09:40:43;5.33;;;2.40;;
16979;SDS011;42288;52.182;21.156;2023-07-31T09:43:11;4.53;;;2.30;;
16979;SDS011;42288;52.182;21.156;2023-07-31T09:45:44;6.90;;;2.07;;
16979;SDS011;42288;52.182;21.156;2023-07-31T09:48:12;4.83;;;2.13;;
16979;SDS011;42288;52.182;21.156;2023-07-31T09:50:43;4.10;;;2.20;;
16979;SDS011;42288;52.182;21.156;2023-07-31T09:53:10;5.40;;;2.17;;
16979;SDS011;42288;52.182;21.156;2023-07-31T09:55:36;6.33;;;2.07;;
16979;SDS011;42288;52.182;21.156;2023-07-31T09:58:06;3.50;;;1.80;;
16979;SDS011;42288;52.182;21.156;2023-07-31T10:00:34;4.82;;;2.25;;
16979;SDS011;42288;52.182;21.156;2023-07-31T10:03:00;4.93;;;1.90;;
16979;SDS011;42288;52.182;21.156;2023-07-31T10:05:36;6.13;;;2.00;;
16979;SDS011;42288;52.182;21.156;2023-07-31T10:08:04;7.83;;;2.10;;
16979;SDS011;42288;52.182;21.156;2023-07-31T10:10:32;4.27;;;1.87;;
16979;SDS011;42288;52.182;21.156;2023-07-31T10:12:59;4.75;;;1.90;;
16979;SDS011;42288;52.182;21.156;2023-07-31T10:15:25;3.95;;;1.55;;
16979;SDS011;42288;52.182;21.156;2023-07-31T10:17:52;4.00;;;1.95;;
16979;SDS011;42288;52.182;21.156;2023-07-31T10:20:19;4.05;;;1.88;;
16979;SDS011;42288;52.182;21.156;2023-07-31T10:22:46;3.70;;;1.80;;
16979;SDS011;42288;52.182;21.156;2023-07-31T10:25:12;4.30;;;1.92;;
16979;SDS011;42288;52.182;21.156;2023-07-31T10:27:40;3.58;;;1.73;;
16979;SDS011;42288;52.182;21.156;2023-07-31T10:30:07;5.18;;;1.58;;
16979;SDS011;42288;52.182;21.156;2023-07-31T10:32:43;5.20;;;1.70;;
16979;SDS011;42288;52.182;21.156;2023-07-31T10:35:10;4.55;;;1.77;;
16979;SDS011;42288;52.182;21.156;2023-07-31T10:37:37;3.78;;;1.80;;
16979;SDS011;42288;52.182;21.156;2023-07-31T10:40:04;4.38;;;1.85;;
16979;SDS011;42288;52.182;21.156;2023-07-31T10:42:34;3.72;;;1.70;;
16979;SDS011;42288;52.182;21.156;2023-07-31T10:45:04;2.78;;;1.73;;
16979;SDS011;42288;52.182;21.156;2023-07-31T10:48:06;4.95;;;1.60;;
16979;SDS011;42288;52.182;21.156;2023-07-31T10:50:27;9.45;;;2.20;;
16979;SDS011;42288;52.182;21.156;2023-07-31T10:52:55;5.82;;;1.70;;
16979;SDS011;42288;52.182;21.156;2023-07-31T10:57:51;3.58;;;1.80;;
16979;SDS011;42288;52.182;21.156;2023-07-31T11:00:27;3.97;;;1.83;;
16979;SDS011;42288;52.182;21.156;2023-07-31T11:05:52;2.58;;;1.38;;
16979;SDS011;42288;52.182;21.156;2023-07-31T11:13:26;2.90;;;1.50;;
16979;SDS011;42288;52.182;21.156;2023-07-31T11:15:56;2.60;;;1.40;;
16979;SDS011;42288;52.182;21.156;2023-07-31T11:18:22;2.92;;;1.50;;
16979;SDS011;42288;52.182;21.156;2023-07-31T11:20:48;3.53;;;1.52;;
16979;SDS011;42288;52.182;21.156;2023-07-31T11:23:15;3.00;;;1.38;;
16979;SDS011;42288;52.182;21.156;2023-07-31T11:25:42;2.58;;;1.30;;
16979;SDS011;42288;52.182;21.156;2023-07-31T11:28:12;3.25;;;1.50;;
16979;SDS011;42288;52.182;21.156;2023-07-31T11:30:39;3.10;;;1.40;;
16979;SDS011;42288;52.182;21.156;2023-07-31T11:33:08;4.05;;;1.38;;
16979;SDS011;42288;52.182;21.156;2023-07-31T11:35:40;3.70;;;1.52;;
16979;SDS011;42288;52.182;21.156;2023-07-31T11:38:11;4.38;;;1.40;;
16979;SDS011;42288;52.182;21.156;2023-07-31T11:40:41;2.55;;;1.17;;
16979;SDS011;42288;52.182;21.156;2023-07-31T11:43:08;2.38;;;1.45;;
16979;SDS011;42288;52.182;21.156;2023-07-31T11:45:33;4.22;;;1.63;;
16979;SDS011;42288;52.182;21.156;2023-07-31T11:48:00;3.78;;;1.50;;
16979;SDS011;42288;52.182;21.156;2023-07-31T11:50:26;2.95;;;1.38;;
16979;SDS011;42288;52.182;21.156;2023-07-31T11:52:59;4.47;;;1.58;;
16979;SDS011;42288;52.182;21.156;2023-07-31T11:55:26;3.13;;;1.27;;
16979;SDS011;42288;52.182;21.156;2023-07-31T11:57:52;3.50;;;1.25;;
16979;SDS011;42288;52.182;21.156;2023-07-31T12:00:22;2.80;;;1.35;;
16979;SDS011;42288;52.182;21.156;2023-07-31T12:02:48;2.95;;;1.50;;
16979;SDS011;42288;52.182;21.156;2023-07-31T12:05:15;4.22;;;1.52;;
16979;SDS011;42288;52.182;21.156;2023-07-31T12:07:44;2.28;;;1.20;;
16979;SDS011;42288;52.182;21.156;2023-07-31T12:10:27;3.75;;;1.50;;
16979;SDS011;42288;52.182;21.156;2023-07-31T12:13:01;2.53;;;1.30;;
16979;SDS011;42288;52.182;21.156;2023-07-31T12:15:37;2.85;;;1.48;;
16979;SDS011;42288;52.182;21.156;2023-07-31T12:18:08;2.80;;;1.50;;
16979;SDS011;42288;52.182;21.156;2023-07-31T12:20:44;2.85;;;1.63;;
16979;SDS011;42288;52.182;21.156;2023-07-31T12:23:15;2.22;;;1.33;;
16979;SDS011;42288;52.182;21.156;2023-07-31T12:26:09;2.92;;;1.30;;
16979;SDS011;42288;52.182;21.156;2023-07-31T12:28:40;6.15;;;1.63;;
16979;SDS011;42288;52.182;21.156;2023-07-31T12:31:06;5.68;;;1.55;;
16979;SDS011;42288;52.182;21.156;2023-07-31T12:33:34;2.78;;;1.58;;
16979;SDS011;42288;52.182;21.156;2023-07-31T12:36:02;4.22;;;1.50;;
16979;SDS011;42288;52.182;21.156;2023-07-31T12:38:29;2.28;;;1.23;;
16979;SDS011;42288;52.182;21.156;2023-07-31T12:40:55;4.22;;;1.20;;
16979;SDS011;42288;52.182;21.156;2023-07-31T12:43:21;2.35;;;1.20;;
16979;SDS011;42288;52.182;21.156;2023-07-31T12:45:47;3.97;;;1.67;;
16979;SDS011;42288;52.182;21.156;2023-07-31T12:48:13;5.93;;;1.58;;
16979;SDS011;42288;52.182;21.156;2023-07-31T12:50:38;2.55;;;1.35;;
16979;SDS011;42288;52.182;21.156;2023-07-31T12:53:04;2.45;;;1.20;;
16979;SDS011;42288;52.182;21.156;2023-07-31T12:55:31;3.47;;;1.40;;
16979;SDS011;42288;52.182;21.156;2023-07-31T12:57:59;4.40;;;1.30;;
16979;SDS011;42288;52.182;21.156;2023-07-31T13:00:25;6.63;;;1.60;;
16979;SDS011;42288;52.182;21.156;2023-07-31T13:02:51;4.18;;;1.42;;
16979;SDS011;42288;52.182;21.156;2023-07-31T13:05:17;3.72;;;1.50;;
16979;SDS011;42288;52.182;21.156;2023-07-31T13:07:44;2.75;;;1.38;;
16979;SDS011;42288;52.182;21.156;2023-07-31T13:10:10;3.53;;;1.63;;
16979;SDS011;42288;52.182;21.156;2023-07-31T13:12:35;4.22;;;1.42;;
16979;SDS011;42288;52.182;21.156;2023-07-31T13:15:01;2.30;;;1.25;;
16979;SDS011;42288;52.182;21.156;2023-07-31T13:17:27;2.83;;;1.30;;
16979;SDS011;42288;52.182;21.156;2023-07-31T13:19:52;3.55;;;1.45;;
16979;SDS011;42288;52.182;21.156;2023-07-31T13:22:18;3.35;;;1.25;;
16979;SDS011;42288;52.182;21.156;2023-07-31T13:24:43;3.40;;;1.30;;
16979;SDS011;42288;52.182;21.156;2023-07-31T13:27:09;8.00;;;1.73;;
16979;SDS011;42288;52.182;21.156;2023-07-31T13:29:34;5.38;;;1.50;;
16979;SDS011;42288;52.182;21.156;2023-07-31T13:32:00;4.60;;;1.63;;
16979;SDS011;42288;52.182;21.156;2023-07-31T13:34:25;3.78;;;1.50;;
16979;SDS011;42288;52.182;21.156;2023-07-31T13:36:53;4.43;;;1.60;;
16979;SDS011;42288;52.182;21.156;2023-07-31T13:39:20;6.38;;;1.80;;
16979;SDS011;42288;52.182;21.156;2023-07-31T13:41:45;4.18;;;2.00;;
16979;SDS011;42288;52.182;21.156;2023-07-31T13:44:11;5.22;;;2.25;;
16979;SDS011;42288;52.182;21.156;2023-07-31T13:46:36;6.30;;;2.50;;
16979;SDS011;42288;52.182;21.156;2023-07-31T13:49:02;5.47;;;3.00;;
16979;SDS011;42288;52.182;21.156;2023-07-31T13:51:27;5.38;;;2.90;;
16979;SDS011;42288;52.182;21.156;2023-07-31T13:53:53;4.03;;;2.90;;
16979;SDS011;42288;52.182;21.156;2023-07-31T13:56:19;8.90;;;3.05;;
16979;SDS011;42288;52.182;21.156;2023-07-31T13:58:45;5.93;;;2.53;;
16979;SDS011;42288;52.182;21.156;2023-07-31T14:01:10;6.55;;;2.95;;
16979;SDS011;42288;52.182;21.156;2023-07-31T14:03:36;5.10;;;2.95;;
16979;SDS011;42288;52.182;21.156;2023-07-31T14:06:01;6.85;;;4.05;;
16979;SDS011;42288;52.182;21.156;2023-07-31T14:08:27;7.85;;;4.70;;
16979;SDS011;42288;52.182;21.156;2023-07-31T14:10:54;9.50;;;4.57;;
16979;SDS011;42288;52.182;21.156;2023-07-31T14:13:20;6.63;;;3.15;;
16979;SDS011;42288;52.182;21.156;2023-07-31T14:15:46;8.25;;;2.88;;
16979;SDS011;42288;52.182;21.156;2023-07-31T14:18:11;6.30;;;2.30;;
16979;SDS011;42288;52.182;21.156;2023-07-31T14:20:37;5.22;;;1.85;;
16979;SDS011;42288;52.182;21.156;2023-07-31T14:23:02;6.75;;;2.00;;
16979;SDS011;42288;52.182;21.156;2023-07-31T14:25:28;4.30;;;1.63;;
16979;SDS011;42288;52.182;21.156;2023-07-31T14:27:54;8.18;;;1.95;;
16979;SDS011;42288;52.182;21.156;2023-07-31T14:30:20;5.00;;;1.88;;
16979;SDS011;42288;52.182;21.156;2023-07-31T14:32:46;6.10;;;2.50;;
16979;SDS011;42288;52.182;21.156;2023-07-31T14:35:11;4.57;;;1.80;;
16979;SDS011;42288;52.182;21.156;2023-07-31T14:37:41;4.28;;;1.70;;
16979;SDS011;42288;52.182;21.156;2023-07-31T14:40:08;4.22;;;1.75;;
16979;SDS011;42288;52.182;21.156;2023-07-31T14:42:35;5.40;;;1.80;;
16979;SDS011;42288;52.182;21.156;2023-07-31T14:45:01;3.70;;;1.67;;
16979;SDS011;42288;52.182;21.156;2023-07-31T14:47:27;4.22;;;1.67;;
16979;SDS011;42288;52.182;21.156;2023-07-31T14:49:53;6.68;;;1.70;;
16979;SDS011;42288;52.182;21.156;2023-07-31T14:52:19;4.70;;;1.60;;
16979;SDS011;42288;52.182;21.156;2023-07-31T14:54:44;3.33;;;1.70;;
16979;SDS011;42288;52.182;21.156;2023-07-31T14:57:10;4.43;;;1.85;;
16979;SDS011;42288;52.182;21.156;2023-07-31T14:59:36;2.50;;;1.35;;
16979;SDS011;42288;52.182;21.156;2023-07-31T15:02:01;2.95;;;1.65;;